Time;durP1;ratioP1;P1;durP2;ratioP2;P2;SDS_P1;SDS_P2;PMS_P1;PMS_P2;Temp;Humidity;BMP_temperature;BMP_pressure;BME280_temperature;BME280_humidity;BME280_pressure;Samples;Min_cycle;Max_cycle;Signal;HPM_P1;HPM_P2
2022/09/22 00:01:25;;;;;;;0.65;0.50;;;11.50;68.60;;;;;;5071000;28;20507;-69
2022/09/22 00:03:54;;;;;;;0.50;0.50;;;11.50;68.70;;;;;;5060374;28;20479;-68
2022/09/22 00:06:23;;;;;;;0.45;0.22;;;11.40;68.70;;;;;;5067977;28;20024;-68
2022/09/22 00:08:54;;;;;;;0.70;0.70;;;11.40;68.70;;;;;;5059989;28;20402;-69
2022/09/22 00:11:27;;;;;;;0.50;0.30;;;11.40;68.60;;;;;;5070879;28;20352;-68
2022/09/22 00:14:00;;;;;;;0.52;0.50;;;11.40;68.60;;;;;;5062412;28;20036;-67
2022/09/22 00:16:41;;;;;;;0.73;0.50;;;11.40;68.70;;;;;;5070709;28;20463;-67
2022/09/22 00:19:13;;;;;;;0.82;0.77;;;11.40;68.80;;;;;;5043477;28;20483;-67
2022/09/22 00:21:39;;;;;;;0.75;0.63;;;11.30;68.90;;;;;;5069439;28;20025;-68
2022/09/22 00:24:06;;;;;;;0.63;0.57;;;11.30;68.80;;;;;;5061311;28;20036;-67
2022/09/22 00:26:34;;;;;;;0.85;0.35;;;11.30;68.90;;;;;;5069058;28;20032;-67
2022/09/22 00:29:00;;;;;;;1.25;0.50;;;11.30;68.90;;;;;;5025538;28;20033;-68
2022/09/22 00:31:27;;;;;;;0.63;0.63;;;11.30;68.90;;;;;;5048092;28;20032;-68
2022/09/22 00:33:54;;;;;;;0.50;0.50;;;11.30;68.90;;;;;;5066499;28;20078;-74
2022/09/22 00:36:24;;;;;;;0.98;0.93;;;11.20;69.00;;;;;;5068915;28;20107;-67
2022/09/22 00:38:51;;;;;;;5.07;1.27;;;11.20;69.10;;;;;;5051857;28;20028;-67
2022/09/22 00:41:26;;;;;;;0.40;0.40;;;11.20;69.20;;;;;;5070001;28;20052;-67
2022/09/22 00:44:17;;;;;;;1.08;0.88;;;11.20;69.20;;;;;;5069016;28;20048;-67
2022/09/22 00:46:46;;;;;;;0.63;0.63;;;11.20;69.10;;;;;;5068704;28;20146;-67
2022/09/22 00:49:14;;;;;;;0.60;0.50;;;11.10;69.30;;;;;;5067951;28;20037;-68
2022/09/22 00:51:43;;;;;;;0.68;0.50;;;11.10;69.50;;;;;;5068639;28;20020;-68
2022/09/22 00:54:13;;;;;;;0.82;0.82;;;11.10;69.40;;;;;;5069407;28;20618;-68
2022/09/22 00:57:05;;;;;;;1.60;0.65;;;11.10;69.50;;;;;;5068281;28;20027;-67
2022/09/22 00:59:31;;;;;;;1.33;0.70;;;11.10;69.60;;;;;;5064312;28;20127;-67
2022/09/22 01:01:57;;;;;;;0.63;0.50;;;11.00;69.60;;;;;;5069421;28;20021;-67
2022/09/22 01:04:23;;;;;;;2.83;0.60;;;11.00;69.50;;;;;;5069078;28;20422;-67
2022/09/22 01:06:49;;;;;;;0.60;0.60;;;11.00;69.50;;;;;;5069387;28;20016;-67
2022/09/22 01:09:15;;;;;;;0.50;0.50;;;11.00;69.60;;;;;;5051805;28;20480;-67
2022/09/22 01:11:41;;;;;;;0.80;0.70;;;11.00;69.70;;;;;;5069537;28;20036;-67
2022/09/22 01:14:28;;;;;;;0.55;0.55;;;11.00;69.70;;;;;;5065763;28;20044;-67
2022/09/22 01:17:09;;;;;;;0.40;0.40;;;11.00;69.60;;;;;;5048556;28;20064;-67
2022/09/22 01:19:52;;;;;;;2.05;0.70;;;10.90;69.80;;;;;;5065472;28;20047;-68
2022/09/22 01:22:33;;;;;;;1.50;0.80;;;10.90;69.80;;;;;;5067618;28;20406;-68
2022/09/22 01:25:45;;;;;;;0.77;0.65;;;10.90;69.80;;;;;;5068881;28;20086;-68
2022/09/22 01:28:47;;;;;;;1.42;0.60;;;10.90;69.90;;;;;;5067889;28;20460;-68
2022/09/22 01:31:24;;;;;;;1.23;0.60;;;10.90;70.00;;;;;;5064126;28;20021;-68
2022/09/22 01:34:07;;;;;;;7.20;0.90;;;10.80;70.20;;;;;;5065089;28;20017;-67
2022/09/22 01:36:45;;;;;;;0.68;0.68;;;10.80;70.20;;;;;;5068629;28;20024;-68
2022/09/22 01:39:36;;;;;;;0.75;0.75;;;10.80;70.10;;;;;;5060015;28;20033;-68
2022/09/22 01:42:13;;;;;;;0.57;0.57;;;10.80;70.20;;;;;;5044854;28;20033;-68
2022/09/22 01:45:00;;;;;;;0.52;0.52;;;10.80;70.30;;;;;;5063670;28;20028;-69
2022/09/22 01:47:48;;;;;;;0.50;0.50;;;10.70;70.30;;;;;;5050411;28;20046;-67
2022/09/22 01:50:31;;;;;;;2.08;0.47;;;10.70;70.40;;;;;;5059605;28;20025;-67
2022/09/22 01:53:00;;;;;;;2.05;0.80;;;10.70;70.50;;;;;;5068642;28;20037;-66
2022/09/22 01:55:34;;;;;;;2.10;1.02;;;10.70;70.60;;;;;;5067327;28;20029;-66
2022/09/22 01:58:20;;;;;;;0.60;0.60;;;10.70;70.70;;;;;;5068777;28;20028;-66
2022/09/22 02:01:08;;;;;;;2.28;0.98;;;10.70;70.60;;;;;;5061724;28;20090;-66
2022/09/22 02:03:49;;;;;;;2.33;0.50;;;10.60;70.70;;;;;;5067423;28;20037;-66
2022/09/22 02:06:21;;;;;;;1.85;0.80;;;10.60;70.90;;;;;;5049401;28;20025;-68
2022/09/22 02:08:55;;;;;;;0.60;0.52;;;10.60;71.00;;;;;;5058230;28;20024;-66
2022/09/22 02:11:27;;;;;;;1.17;0.75;;;10.60;70.90;;;;;;5050948;28;20077;-66
2022/09/22 02:13:53;;;;;;;0.60;0.60;;;10.60;70.90;;;;;;5060294;28;20041;-66
2022/09/22 02:16:21;;;;;;;0.73;0.60;;;10.60;70.90;;;;;;5068662;28;20032;-67
2022/09/22 02:19:00;;;;;;;0.45;0.45;;;10.60;71.00;;;;;;5044307;28;20487;-68
2022/09/22 02:21:26;;;;;;;1.10;0.40;;;10.60;71.00;;;;;;5068017;28;20056;-68
2022/09/22 02:23:54;;;;;;;0.40;0.40;;;10.50;71.00;;;;;;5069493;28;20029;-68
2022/09/22 02:26:24;;;;;;;1.15;0.57;;;10.50;71.00;;;;;;5069920;28;20033;-68
2022/09/22 02:29:05;;;;;;;0.73;0.68;;;10.50;71.00;;;;;;5049644;28;20032;-68
2022/09/22 02:31:33;;;;;;;0.60;0.60;;;10.50;71.10;;;;;;5068935;28;20028;-68
2022/09/22 02:34:00;;;;;;;1.85;0.80;;;10.50;71.20;;;;;;5068275;28;20020;-68
2022/09/22 02:37:03;;;;;;;1.05;0.50;;;10.50;71.20;;;;;;5067602;28;20444;-68
2022/09/22 02:39:41;;;;;;;2.67;0.65;;;10.50;71.20;;;;;;5060701;28;20056;-67
2022/09/22 02:42:28;;;;;;;0.47;0.30;;;10.40;71.30;;;;;;5062006;28;20032;-68
2022/09/22 02:45:07;;;;;;;0.20;0.20;;;10.40;71.30;;;;;;5046248;28;20028;-68
2022/09/22 02:47:41;;;;;;;0.85;0.75;;;10.40;71.40;;;;;;5046856;28;20074;-68
2022/09/22 02:50:10;;;;;;;1.55;0.68;;;10.40;71.50;;;;;;5056780;28;20027;-67
2022/09/22 02:52:37;;;;;;;0.38;0.38;;;10.40;71.60;;;;;;5061497;28;20368;-68
2022/09/22 02:55:03;;;;;;;1.17;0.57;;;10.40;71.50;;;;;;5049237;28;20044;-68
2022/09/22 02:57:29;;;;;;;0.40;0.40;;;10.30;71.50;;;;;;5066958;28;20040;-68
2022/09/22 02:59:54;;;;;;;2.08;0.68;;;10.30;71.50;;;;;;5067879;28;20503;-67
2022/09/22 03:02:20;;;;;;;1.75;1.00;;;10.30;71.50;;;;;;5052516;28;20028;-67
2022/09/22 03:04:46;;;;;;;0.77;0.50;;;10.30;71.70;;;;;;5071704;28;20360;-67
2022/09/22 03:07:11;;;;;;;0.47;0.47;;;10.30;71.70;;;;;;5071476;28;20471;-68
2022/09/22 03:09:37;;;;;;;0.40;0.40;;;10.30;71.70;;;;;;5071699;28;20020;-68
2022/09/22 03:12:03;;;;;;;0.30;0.30;;;10.30;71.60;;;;;;5071882;28;20053;-68
2022/09/22 03:14:29;;;;;;;1.63;0.50;;;10.30;71.70;;;;;;5052728;28;20098;-66
2022/09/22 03:16:55;;;;;;;0.40;0.40;;;10.20;71.60;;;;;;5053352;28;20025;-68
2022/09/22 03:19:20;;;;;;;0.40;0.40;;;10.20;71.70;;;;;;5071304;28;20024;-68
2022/09/22 03:21:46;;;;;;;0.93;0.82;;;10.20;71.70;;;;;;5053936;28;20032;-67
2022/09/22 03:24:12;;;;;;;1.55;0.57;;;10.20;71.70;;;;;;5071293;28;20031;-68
2022/09/22 03:26:37;;;;;;;0.50;0.40;;;10.20;71.70;;;;;;5071161;28;20123;-67
2022/09/22 03:29:03;;;;;;;0.60;0.55;;;10.20;71.80;;;;;;5070784;28;20049;-67
2022/09/22 03:31:52;;;;;;;5.75;0.90;;;10.20;71.80;;;;;;5073068;28;20012;-68
2022/09/22 03:34:18;;;;;;;1.23;0.50;;;10.20;71.70;;;;;;5024540;28;20032;-69
2022/09/22 03:36:43;;;;;;;0.38;0.30;;;10.10;71.80;;;;;;5070831;28;20387;-68
2022/09/22 03:39:09;;;;;;;0.77;0.60;;;10.10;71.80;;;;;;5063558;28;20086;-66
2022/09/22 03:41:36;;;;;;;0.95;0.60;;;10.10;71.80;;;;;;5069573;28;20395;-67
2022/09/22 03:44:06;;;;;;;0.50;0.47;;;10.10;71.80;;;;;;5070869;28;20080;-67
2022/09/22 03:46:31;;;;;;;2.13;0.68;;;10.10;71.90;;;;;;5070529;28;20400;-67
2022/09/22 03:48:57;;;;;;;2.30;0.65;;;10.10;72.00;;;;;;5070539;28;20028;-67
2022/09/22 03:51:23;;;;;;;0.52;0.50;;;10.00;72.00;;;;;;5070073;28;20021;-67
2022/09/22 03:53:48;;;;;;;0.30;0.30;;;10.00;72.00;;;;;;5063472;28;20021;-68
2022/09/22 03:56:15;;;;;;;0.40;0.40;;;10.00;72.10;;;;;;5067171;28;20032;-68
2022/09/22 03:58:41;;;;;;;0.68;0.68;;;10.00;72.10;;;;;;5068899;28;20474;-67
2022/09/22 04:01:09;;;;;;;1.67;0.90;;;10.00;72.20;;;;;;5053121;28;20035;-67
2022/09/22 04:03:36;;;;;;;0.90;0.70;;;10.00;72.20;;;;;;5068782;28;20461;-68
2022/09/22 04:06:02;;;;;;;0.75;0.50;;;10.00;72.20;;;;;;5052807;28;20032;-68
2022/09/22 04:08:28;;;;;;;0.50;0.50;;;10.00;72.20;;;;;;5050580;28;20102;-67
2022/09/22 04:10:56;;;;;;;0.57;0.57;;;9.90;72.20;;;;;;5067925;28;20491;-67
2022/09/22 04:13:22;;;;;;;0.45;0.45;;;9.90;72.30;;;;;;5047357;28;20040;-67
2022/09/22 04:15:48;;;;;;;1.17;0.60;;;9.90;72.30;;;;;;5051834;28;20418;-67
2022/09/22 04:18:14;;;;;;;0.65;0.57;;;9.90;72.20;;;;;;5069480;28;20036;-66
2022/09/22 04:20:42;;;;;;;1.85;0.50;;;9.90;72.30;;;;;;5048447;28;20041;-66
2022/09/22 04:23:09;;;;;;;3.20;0.88;;;9.90;72.40;;;;;;5048981;28;20024;-66
2022/09/22 04:25:34;;;;;;;0.30;0.30;;;9.80;72.30;;;;;;5046975;28;20032;-68
2022/09/22 04:28:01;;;;;;;1.63;0.80;;;9.80;72.50;;;;;;5060132;28;20042;-66
2022/09/22 04:30:27;;;;;;;0.68;0.68;;;9.80;72.50;;;;;;5061425;28;20379;-67
2022/09/22 04:32:52;;;;;;;1.33;0.60;;;9.80;72.50;;;;;;5067258;28;20111;-66
2022/09/22 04:35:18;;;;;;;0.55;0.55;;;9.80;72.50;;;;;;5057640;28;20037;-66
2022/09/22 04:37:43;;;;;;;0.60;0.60;;;9.80;72.60;;;;;;5068123;28;20044;-67
2022/09/22 04:40:10;;;;;;;0.63;0.57;;;9.80;72.80;;;;;;5069127;28;20020;-68
2022/09/22 04:42:37;;;;;;;0.80;0.50;;;9.80;72.80;;;;;;5066663;28;20090;-67
2022/09/22 04:45:05;;;;;;;0.47;0.43;;;9.70;72.70;;;;;;5067244;28;20070;-67
2022/09/22 04:47:32;;;;;;;0.60;0.60;;;9.70;72.70;;;;;;5040288;28;20115;-67
2022/09/22 04:49:58;;;;;;;0.80;0.77;;;9.70;72.70;;;;;;5062650;28;20444;-67
2022/09/22 04:52:24;;;;;;;1.02;0.60;;;9.70;72.80;;;;;;5047407;28;20476;-68
2022/09/22 04:54:50;;;;;;;2.13;0.68;;;9.70;72.70;;;;;;5033906;28;20028;-68
2022/09/22 04:57:16;;;;;;;0.43;0.43;;;9.70;72.80;;;;;;5046430;28;20040;-69
2022/09/22 04:59:42;;;;;;;1.27;0.80;;;9.70;72.80;;;;;;5044462;28;20407;-68
2022/09/22 05:02:08;;;;;;;1.33;0.90;;;9.70;72.80;;;;;;5065553;28;20029;-68
2022/09/22 05:04:34;;;;;;;2.58;0.60;;;9.60;72.80;;;;;;5062538;28;20028;-68
2022/09/22 05:07:00;;;;;;;0.90;0.73;;;9.60;72.80;;;;;;5067086;28;20126;-68
2022/09/22 05:09:25;;;;;;;0.85;0.80;;;9.60;72.80;;;;;;5032518;28;20020;-68
2022/09/22 05:11:51;;;;;;;0.60;0.60;;;9.60;72.90;;;;;;5068932;28;20036;-66
2022/09/22 05:14:17;;;;;;;3.25;0.63;;;9.60;73.00;;;;;;5067672;28;20025;-67
2022/09/22 05:16:43;;;;;;;0.65;0.65;;;9.60;73.00;;;;;;5050978;28;20093;-67
2022/09/22 05:19:09;;;;;;;0.68;0.68;;;9.60;73.10;;;;;;5066279;28;20035;-67
2022/09/22 05:21:35;;;;;;;1.33;0.90;;;9.60;73.10;;;;;;5065732;28;20032;-67
2022/09/22 05:24:02;;;;;;;2.25;1.27;;;9.60;73.10;;;;;;5067392;28;20056;-67
2022/09/22 05:26:29;;;;;;;1.40;0.90;;;9.60;73.10;;;;;;5062998;28;20605;-67
2022/09/22 05:28:56;;;;;;;0.80;0.80;;;9.60;73.20;;;;;;5066242;28;20119;-68
2022/09/22 05:31:22;;;;;;;0.77;0.70;;;9.50;73.20;;;;;;5049201;28;20392;-68
2022/09/22 05:33:48;;;;;;;0.63;0.63;;;9.50;73.30;;;;;;5050589;28;20107;-68
2022/09/22 05:36:13;;;;;;;1.27;0.85;;;9.50;73.30;;;;;;5068623;28;20139;-67
2022/09/22 05:38:39;;;;;;;0.98;0.82;;;9.50;73.30;;;;;;5066856;28;20036;-67
2022/09/22 05:41:05;;;;;;;0.80;0.70;;;9.50;73.30;;;;;;5050178;28;20128;-67
2022/09/22 05:43:30;;;;;;;0.80;0.80;;;9.50;73.30;;;;;;5028281;28;20060;-67
2022/09/22 05:45:57;;;;;;;1.42;0.82;;;9.50;73.30;;;;;;5048341;28;20407;-67
2022/09/22 05:48:23;;;;;;;2.38;0.88;;;9.60;73.40;;;;;;5047204;28;20017;-68
2022/09/22 05:50:49;;;;;;;2.42;1.35;;;9.60;73.60;;;;;;5047828;28;20057;-68
2022/09/22 05:53:15;;;;;;;10.32;1.08;;;9.60;73.80;;;;;;5045571;28;20067;-68
2022/09/22 05:55:41;;;;;;;1.33;0.90;;;9.60;73.80;;;;;;5039255;28;20166;-68
2022/09/22 05:58:10;;;;;;;0.93;0.90;;;9.60;73.80;;;;;;5044394;28;20077;-68
2022/09/22 06:00:36;;;;;;;1.00;0.90;;;9.70;73.80;;;;;;5040319;28;20389;-68
2022/09/22 06:03:03;;;;;;;1.60;0.95;;;9.70;73.90;;;;;;5044255;28;20037;-68
2022/09/22 06:05:28;;;;;;;1.42;0.93;;;9.70;74.00;;;;;;5046748;28;20033;-68
2022/09/22 06:08:01;;;;;;;2.45;1.23;;;9.70;74.10;;;;;;5045438;28;20017;-68
2022/09/22 06:10:30;;;;;;;1.25;0.90;;;9.80;74.10;;;;;;5045286;28;20032;-69
2022/09/22 06:13:01;;;;;;;1.25;1.00;;;9.80;74.10;;;;;;5041469;28;20029;-67
2022/09/22 06:15:27;;;;;;;2.22;1.40;;;9.80;74.10;;;;;;5046198;28;20112;-68
2022/09/22 06:17:54;;;;;;;2.28;0.88;;;9.90;74.10;;;;;;5048393;28;20079;-69
2022/09/22 06:20:20;;;;;;;1.95;1.10;;;9.90;74.00;;;;;;5045748;28;20488;-69
2022/09/22 06:22:46;;;;;;;1.73;1.60;;;10.00;74.10;;;;;;5038493;28;20083;-66
2022/09/22 06:25:11;;;;;;;1.95;1.15;;;10.00;74.30;;;;;;5045701;28;20460;-72
2022/09/22 06:27:38;;;;;;;2.72;1.08;;;10.10;74.50;;;;;;5047421;28;20384;-66
2022/09/22 06:30:04;;;;;;;1.90;1.55;;;10.10;74.50;;;;;;5046716;28;20057;-68
2022/09/22 06:32:32;;;;;;;1.23;1.00;;;10.20;74.60;;;;;;5046670;28;20035;-68
2022/09/22 06:35:01;;;;;;;3.53;1.15;;;10.30;74.50;;;;;;5048824;28;20032;-67
2022/09/22 06:37:27;;;;;;;3.00;1.50;;;10.30;74.50;;;;;;5050256;28;20065;-68
2022/09/22 06:39:53;;;;;;;1.83;1.30;;;10.40;74.60;;;;;;5050518;28;20412;-68
2022/09/22 06:42:19;;;;;;;2.70;0.93;;;10.50;74.60;;;;;;5054987;28;20029;-68
2022/09/22 06:44:45;;;;;;;20.85;1.40;;;10.60;74.60;;;;;;5069238;28;20025;-71
2022/09/22 06:47:11;;;;;;;2.10;1.08;;;10.70;74.50;;;;;;5066169;28;20562;-75
2022/09/22 06:49:37;;;;;;;2.92;1.83;;;10.80;74.50;;;;;;5071757;28;20029;-70
2022/09/22 06:52:03;;;;;;;2.08;1.48;;;10.80;74.40;;;;;;5065608;28;20495;-69
2022/09/22 06:54:29;;;;;;;1.95;1.73;;;10.90;74.50;;;;;;5069790;28;20115;-70
2022/09/22 06:56:54;;;;;;;1.50;1.40;;;11.00;74.40;;;;;;5071947;28;20483;-69
2022/09/22 06:59:20;;;;;;;2.63;1.88;;;11.10;74.20;;;;;;5068713;28;20021;-69
2022/09/22 07:01:46;;;;;;;4.78;2.28;;;11.20;73.90;;;;;;5069424;28;20039;-67
2022/09/22 07:04:11;;;;;;;3.78;2.00;;;11.40;73.90;;;;;;5043307;28;20049;-69
2022/09/22 07:06:39;;;;;;;3.88;2.13;;;11.50;73.70;;;;;;5046725;28;20380;-68
2022/09/22 07:09:06;;;;;;;3.40;2.40;;;11.60;73.70;;;;;;5066811;28;20033;-67
2022/09/22 07:11:32;;;;;;;2.88;2.40;;;11.70;73.60;;;;;;5070457;28;20032;-68
2022/09/22 07:13:57;;;;;;;4.78;2.10;;;11.80;73.50;;;;;;5069214;28;20097;-68
2022/09/22 07:16:25;;;;;;;2.47;2.08;;;11.90;73.40;;;;;;5070324;28;20085;-68
2022/09/22 07:18:53;;;;;;;3.42;2.53;;;12.00;73.40;;;;;;5069281;28;20029;-68
2022/09/22 07:21:27;;;;;;;3.65;2.03;;;12.00;73.40;;;;;;5068520;28;20472;-68
2022/09/22 07:23:54;;;;;;;3.55;2.42;;;12.10;73.40;;;;;;5070488;28;20105;-68
2022/09/22 07:26:26;;;;;;;2.03;1.55;;;12.20;73.40;;;;;;5060591;28;20163;-69
2022/09/22 07:28:54;;;;;;;3.60;2.60;;;12.20;73.30;;;;;;5065672;28;20111;-68
2022/09/22 07:31:22;;;;;;;3.40;2.42;;;12.30;73.30;;;;;;5071142;28;20104;-68
2022/09/22 07:33:48;;;;;;;2.15;1.45;;;12.40;73.30;;;;;;5071134;28;20060;-68
2022/09/22 07:36:22;;;;;;;2.63;2.22;;;12.40;73.20;;;;;;5051873;28;20025;-70
2022/09/22 07:38:50;;;;;;;2.58;2.38;;;12.50;73.20;;;;;;5071255;28;20517;-70
2022/09/22 07:41:41;;;;;;;2.85;2.05;;;12.60;73.20;;;;;;5070648;28;20043;-70
2022/09/22 07:46:57;;;;;;;3.35;2.33;;;12.60;73.30;;;;;;5067431;28;20048;-68
2022/09/22 07:49:22;;;;;;;2.67;2.10;;;12.70;73.20;;;;;;5065196;28;20502;-69
2022/09/22 07:51:48;;;;;;;2.55;2.22;;;12.80;73.10;;;;;;5067057;28;20025;-68
2022/09/22 07:54:14;;;;;;;3.47;2.22;;;12.90;73.00;;;;;;5067676;28;20380;-68
2022/09/22 07:56:42;;;;;;;3.75;2.67;;;12.90;72.90;;;;;;5049611;28;20029;-68
2022/09/22 07:59:10;;;;;;;3.67;2.38;;;13.00;72.80;;;;;;5051489;28;20037;-66
2022/09/22 08:01:42;;;;;;;3.90;2.83;;;13.10;72.60;;;;;;5070315;28;20042;-66
2022/09/22 08:04:15;;;;;;;3.95;1.88;;;13.20;72.40;;;;;;5052690;28;20085;-67
2022/09/22 08:06:45;;;;;;;5.32;3.25;;;13.30;72.40;;;;;;5051829;28;20059;-67
2022/09/22 08:09:12;;;;;;;3.75;2.53;;;13.30;72.00;;;;;;5070793;28;20032;-67
2022/09/22 08:11:38;;;;;;;3.60;2.38;;;13.40;71.80;;;;;;5052265;28;20420;-68
2022/09/22 08:14:07;;;;;;;2.38;2.10;;;13.50;71.50;;;;;;5069770;28;20051;-69
2022/09/22 08:16:35;;;;;;;3.95;2.88;;;13.60;71.50;;;;;;5069256;28;20077;-69
2022/09/22 08:19:09;;;;;;;5.32;2.47;;;13.60;71.60;;;;;;5070047;28;20498;-69
2022/09/22 08:21:35;;;;;;;2.55;2.15;;;13.70;71.50;;;;;;5070053;28;20028;-69
2022/09/22 08:24:06;;;;;;;3.42;2.22;;;13.80;71.30;;;;;;5069948;28;20028;-69
2022/09/22 08:26:32;;;;;;;3.30;2.20;;;13.90;71.20;;;;;;5069897;28;20033;-69
2022/09/22 08:28:58;;;;;;;2.25;2.05;;;14.00;71.10;;;;;;5050826;28;20352;-69
2022/09/22 08:31:26;;;;;;;5.30;2.92;;;14.10;71.00;;;;;;5052363;28;20024;-69
2022/09/22 08:33:53;;;;;;;2.58;2.22;;;14.20;70.90;;;;;;5051378;28;20032;-69
2022/09/22 08:36:21;;;;;;;3.55;2.03;;;14.20;70.60;;;;;;5069551;28;20031;-69
2022/09/22 08:38:49;;;;;;;2.78;1.95;;;14.30;70.50;;;;;;5069478;28;20037;-69
2022/09/22 08:41:23;;;;;;;3.50;2.45;;;14.40;70.30;;;;;;5069963;28;20021;-69
2022/09/22 08:43:57;;;;;;;3.50;2.53;;;14.60;70.10;;;;;;5068541;28;20048;-70
2022/09/22 08:46:34;;;;;;;2.38;1.77;;;14.70;70.00;;;;;;5069270;28;20461;-69
2022/09/22 08:52:14;;;;;;;2.58;2.25;;;14.90;69.50;;;;;;5058015;28;20086;-69
2022/09/22 08:54:41;;;;;;;1.98;1.75;;;15.10;69.30;;;;;;5069267;28;20434;-69
2022/09/22 08:57:26;;;;;;;5.22;3.30;;;15.30;68.90;;;;;;5069407;28;20016;-70
2022/09/22 08:59:57;;;;;;;4.90;2.17;;;15.40;68.50;;;;;;5068061;28;20028;-67
2022/09/22 09:02:26;;;;;;;8.05;2.80;;;15.60;68.50;;;;;;5069788;28;20016;-67
2022/09/22 09:05:13;;;;;;;3.13;2.20;;;15.70;68.10;;;;;;5069418;28;20020;-70
2022/09/22 09:08:21;;;;;;;3.50;1.77;;;15.80;67.90;;;;;;5069232;28;20027;-70
2022/09/22 09:11:07;;;;;;;3.90;2.10;;;15.90;67.40;;;;;;5069624;28;20055;-67
2022/09/22 09:13:44;;;;;;;3.25;1.92;;;16.00;67.10;;;;;;5066974;28;20112;-70
2022/09/22 09:16:32;;;;;;;2.90;2.33;;;16.20;67.60;;;;;;5069090;28;20028;-69
2022/09/22 09:19:27;;;;;;;5.13;2.17;;;16.40;66.80;;;;;;5051024;28;20040;-68
2022/09/22 09:22:00;;;;;;;2.67;2.00;;;16.50;66.50;;;;;;5069140;28;20024;-69
2022/09/22 09:24:33;;;;;;;1.45;1.30;;;16.70;66.40;;;;;;5044634;28;20108;-69
2022/09/22 09:27:23;;;;;;;2.70;1.75;;;16.90;66.20;;;;;;5046592;28;20024;-70
2022/09/22 09:30:03;;;;;;;1.55;1.45;;;17.10;65.80;;;;;;5068933;28;20044;-68
2022/09/22 09:32:50;;;;;;;2.33;1.55;;;17.30;65.50;;;;;;5069055;28;20511;-68
2022/09/22 09:35:34;;;;;;;2.38;1.60;;;17.50;65.10;;;;;;5051455;28;20036;-70
2022/09/22 09:38:01;;;;;;;2.13;1.65;;;17.70;64.50;;;;;;5039731;28;20012;-68
2022/09/22 09:40:27;;;;;;;2.08;1.20;;;17.80;64.00;;;;;;5050934;28;20037;-68
2022/09/22 09:43:04;;;;;;;1.52;1.20;;;17.80;63.90;;;;;;5051040;28;20044;-68
2022/09/22 09:45:34;;;;;;;2.85;1.73;;;18.00;63.70;;;;;;5068191;28;20016;-68
2022/09/22 09:48:11;;;;;;;1.85;1.60;;;18.10;63.00;;;;;;5068586;28;20017;-68
2022/09/22 09:50:37;;;;;;;1.40;0.90;;;18.20;62.60;;;;;;5068691;28;20438;-68
2022/09/22 09:53:03;;;;;;;1.45;1.00;;;18.30;61.90;;;;;;5047706;28;20066;-68
2022/09/22 09:55:28;;;;;;;1.95;1.27;;;18.40;60.40;;;;;;5068831;28;20348;-70
2022/09/22 10:01:07;;;;;;;2.05;1.52;;;18.50;59.90;;;;;;5069006;28;20051;-69
2022/09/22 10:03:35;;;;;;;1.05;0.73;;;18.50;59.70;;;;;;5068517;28;20035;-70
2022/09/22 10:06:06;;;;;;;1.38;1.27;;;18.70;60.00;;;;;;5068454;28;20371;-70
2022/09/22 10:08:48;;;;;;;0.73;0.73;;;18.80;59.80;;;;;;5050432;28;20016;-70
2022/09/22 10:11:14;;;;;;;1.42;0.80;;;19.00;59.50;;;;;;5070796;28;20361;-68
2022/09/22 10:13:41;;;;;;;6.75;1.52;;;19.10;58.50;;;;;;5072531;28;20024;-69
2022/09/22 10:16:22;;;;;;;2.60;1.15;;;19.10;56.00;;;;;;5072363;28;20384;-69
2022/09/22 10:19:09;;;;;;;2.05;1.02;;;19.10;55.70;;;;;;5067091;28;20566;-68
2022/09/22 10:21:36;;;;;;;1.20;0.88;;;19.20;56.30;;;;;;5042454;28;20093;-69
2022/09/22 10:24:31;;;;;;;1.40;0.90;;;19.30;55.90;;;;;;5064102;28;20029;-69
2022/09/22 10:26:57;;;;;;;1.40;1.13;;;19.40;54.90;;;;;;5062254;28;20099;-68
2022/09/22 10:29:24;;;;;;;1.52;1.15;;;19.40;55.40;;;;;;5069197;28;20435;-69
2022/09/22 10:32:00;;;;;;;1.60;1.40;;;19.60;54.80;;;;;;5045563;28;20037;-68
2022/09/22 10:34:34;;;;;;;1.45;0.90;;;19.70;55.20;;;;;;5059054;28;20479;-69
2022/09/22 10:37:02;;;;;;;1.42;1.02;;;19.90;55.40;;;;;;5063863;28;20107;-69
2022/09/22 10:39:52;;;;;;;0.75;0.75;;;20.00;53.40;;;;;;5060492;28;20028;-69
2022/09/22 10:42:42;;;;;;;1.75;0.65;;;20.10;53.90;;;;;;5037758;28;20076;-68
2022/09/22 10:45:12;;;;;;;3.50;1.15;;;20.30;54.00;;;;;;5038312;28;20491;-69
2022/09/22 10:47:53;;;;;;;1.73;1.23;;;20.40;53.20;;;;;;5054421;28;20029;-68
2022/09/22 10:50:42;;;;;;;0.88;0.88;;;20.50;51.30;;;;;;5045557;28;20574;-68
2022/09/22 10:53:26;;;;;;;0.73;0.70;;;20.50;51.80;;;;;;5061125;28;20025;-68
2022/09/22 10:56:08;;;;;;;2.05;0.93;;;20.60;52.40;;;;;;5060570;28;20029;-68
2022/09/22 10:58:59;;;;;;;1.00;1.00;;;20.80;51.80;;;;;;5060124;28;20047;-68
2022/09/22 11:01:50;;;;;;;0.60;0.60;;;21.00;51.50;;;;;;5040709;28;20341;-68
2022/09/22 11:04:46;;;;;;;1.95;1.40;;;21.10;51.50;;;;;;5052092;28;20033;-68
2022/09/22 11:14:01;;;;;;;2.45;1.08;;;21.40;49.50;;;;;;5052203;28;20048;-67
2022/09/22 11:16:46;;;;;;;1.45;1.27;;;21.50;49.10;;;;;;5052356;28;20029;-67
2022/09/22 11:19:32;;;;;;;1.98;1.77;;;21.60;49.60;;;;;;5058476;28;20056;-67
2022/09/22 11:22:36;;;;;;;0.70;0.70;;;21.70;48.90;;;;;;5056375;28;20033;-67
2022/09/22 11:25:23;;;;;;;4.95;0.70;;;21.90;49.00;;;;;;4971286;28;20030;-68
2022/09/22 11:28:14;;;;;;;1.38;0.68;;;22.00;47.70;;;;;;4988873;28;20440;-67
2022/09/22 11:30:45;;;;;;;4.88;0.47;;;21.90;48.20;;;;;;5039643;28;20043;-67
2022/09/22 11:33:49;;;;;;;0.73;0.70;;;22.10;48.00;;;;;;5067786;28;20039;-68
2022/09/22 11:36:41;;;;;;;0.60;0.60;;;22.20;47.30;;;;;;5049797;28;20025;-68
2022/09/22 11:39:16;;;;;;;1.35;0.88;;;22.40;47.30;;;;;;5053378;28;20028;-67
2022/09/22 11:41:46;;;;;;;1.45;1.02;;;22.40;45.20;;;;;;5058888;28;20044;-68
2022/09/22 11:44:14;;;;;;;0.50;0.50;;;22.30;46.00;;;;;;5063366;28;20079;-68
2022/09/22 11:46:46;;;;;;;0.60;0.60;;;22.40;46.10;;;;;;5059840;28;20490;-68
2022/09/22 11:49:18;;;;;;;0.47;0.40;;;22.70;45.50;;;;;;5056620;28;20104;-67
2022/09/22 11:52:08;;;;;;;0.45;0.45;;;22.80;44.40;;;;;;5057066;28;20016;-68
2022/09/22 11:54:53;;;;;;;0.60;0.60;;;22.90;44.60;;;;;;5047356;28;20065;-68
2022/09/22 11:57:23;;;;;;;0.50;0.45;;;23.10;44.10;;;;;;5060675;28;20090;-68
2022/09/22 12:00:01;;;;;;;0.88;0.75;;;23.00;44.30;;;;;;5059839;28;20029;-68
2022/09/22 12:02:53;;;;;;;1.30;0.60;;;22.70;43.80;;;;;;5062349;28;20028;-68
2022/09/22 12:05:25;;;;;;;;;;;22.20;44.10;;;;;;5069361;28;20016;-68
2022/09/22 12:08:14;;;;;;;6.03;1.23;;;21.90;44.20;;;;;;5057316;28;20382;-68
2022/09/22 12:10:43;;;;;;;1.55;1.27;;;21.90;44.10;;;;;;5062689;28;20484;-68
2022/09/22 12:13:26;;;;;;;0.73;0.73;;;22.10;43.90;;;;;;5058737;28;20033;-68
2022/09/22 12:16:02;;;;;;;0.55;0.43;;;22.00;43.90;;;;;;5066279;28;20071;-68
2022/09/22 12:18:34;;;;;;;0.40;0.40;;;21.80;44.50;;;;;;5064782;28;20127;-69
2022/09/22 12:21:18;;;;;;;0.73;0.50;;;21.70;45.50;;;;;;5059895;28;20068;-68
2022/09/22 12:23:48;;;;;;;2.50;0.88;;;21.50;45.60;;;;;;5065641;28;20029;-68
2022/09/22 12:26:35;;;;;;;1.48;0.98;;;21.30;45.70;;;;;;5062470;28;20028;-68
2022/09/22 12:29:15;;;;;;;0.30;0.30;;;21.40;45.90;;;;;;5060471;28;20027;-68
2022/09/22 12:31:49;;;;;;;0.85;0.60;;;21.60;45.60;;;;;;5062132;28;20046;-67
2022/09/22 12:34:28;;;;;;;1.08;0.60;;;21.60;45.40;;;;;;5058850;28;20114;-69
2022/09/22 12:37:08;;;;;;;0.57;0.57;;;21.70;45.60;;;;;;5057653;28;20029;-68
2022/09/22 12:39:39;;;;;;;3.13;0.40;;;21.70;45.80;;;;;;5061794;28;20519;-68
2022/09/22 12:42:27;;;;;;;0.65;0.40;;;21.70;45.90;;;;;;5055712;28;20557;-68
2022/09/22 12:44:52;;;;;;;2.72;1.40;;;21.70;45.80;;;;;;5033773;28;20053;-68
2022/09/22 12:47:29;;;;;;;2.15;1.05;;;22.00;45.70;;;;;;5055248;28;20503;-69
2022/09/22 12:49:57;;;;;;;0.45;0.40;;;22.40;45.10;;;;;;5062897;28;20445;-68
2022/09/22 12:52:56;;;;;;;0.60;0.60;;;22.80;44.50;;;;;;5056236;28;20029;-67
2022/09/22 12:55:36;;;;;;;3.97;0.90;;;23.20;43.20;;;;;;5062097;28;20037;-68
2022/09/22 12:58:22;;;;;;;0.60;0.40;;;23.50;42.50;;;;;;5037770;28;20017;-67
2022/09/22 13:01:31;;;;;;;1.05;0.40;;;23.70;42.30;;;;;;5064254;28;20083;-69
2022/09/22 13:04:16;;;;;;;0.80;0.70;;;23.70;41.10;;;;;;5052965;28;20044;-67
2022/09/22 13:06:42;;;;;;;0.80;0.60;;;23.60;41.00;;;;;;5046252;28;20514;-67
2022/09/22 13:09:16;;;;;;;4.40;0.95;;;23.60;40.60;;;;;;5060340;28;20060;-68
2022/09/22 13:12:13;;;;;;;1.25;0.52;;;23.40;41.00;;;;;;5059140;28;20021;-68
2022/09/22 13:14:59;;;;;;;0.60;0.60;;;23.20;40.20;;;;;;5060394;28;20029;-67
2022/09/22 13:17:41;;;;;;;1.55;0.65;;;23.20;40.60;;;;;;5049387;28;20500;-68
2022/09/22 13:20:36;;;;;;;0.82;0.60;;;23.30;41.00;;;;;;5054545;28;20020;-68
2022/09/22 13:23:12;;;;;;;0.65;0.55;;;23.60;41.00;;;;;;5036803;28;20068;-68
2022/09/22 13:25:41;;;;;;;0.75;0.73;;;23.70;40.70;;;;;;5056383;28;20028;-68
2022/09/22 13:28:06;;;;;;;0.57;0.57;;;23.80;40.50;;;;;;5063865;28;20028;-68
2022/09/22 13:30:33;;;;;;;0.98;0.50;;;23.90;40.10;;;;;;5058169;28;20025;-68
2022/09/22 13:32:59;;;;;;;1.23;0.80;;;23.90;39.10;;;;;;5061003;28;20380;-69